Time;durP1;ratioP1;P1;durP2;ratioP2;P2;SDS_P1;SDS_P2;PMS_P1;PMS_P2;Temp;Humidity;BMP_temperature;BMP_pressure;BME280_temperature;BME280_humidity;BME280_pressure;Samples;Min_cycle;Max_cycle;Signal;HPM_P1;HPM_P2
2021/09/17 00:01:18;;;;;;;66.10;29.02;;;18.70;66.90;;;;;;5111521;28;20084;-65
2021/09/17 00:03:46;;;;;;;55.92;25.00;;;18.70;66.30;;;;;;5083677;28;20027;-65
2021/09/17 00:06:13;;;;;;;60.20;29.52;;;18.80;66.00;;;;;;5107808;28;20020;-65
2021/09/17 00:08:40;;;;;;;57.95;25.30;;;18.90;67.00;;;;;;5107722;28;20126;-63
2021/09/17 00:11:20;;;;;;;59.75;28.30;;;18.90;65.60;;;;;;5109038;28;20044;-65
2021/09/17 00:13:47;;;;;;;60.33;28.15;;;18.90;66.70;;;;;;5100705;28;20051;-61
2021/09/17 00:16:15;;;;;;;55.35;26.88;;;18.80;67.60;;;;;;5107649;28;20024;-67
2021/09/17 00:18:42;;;;;;;65.47;30.52;;;18.90;66.40;;;;;;5116137;28;20476;-69
2021/09/17 00:21:10;;;;;;;56.58;25.88;;;18.90;66.50;;;;;;5115313;28;20047;-67
2021/09/17 00:23:38;;;;;;;54.88;27.10;;;18.90;65.70;;;;;;5115858;28;20030;-67
2021/09/17 00:26:05;;;;;;;47.72;24.08;;;19.00;66.40;;;;;;5115773;28;20081;-65
2021/09/17 00:28:32;;;;;;;47.95;26.15;;;19.10;66.10;;;;;;5097282;28;20030;-66
2021/09/17 00:31:00;;;;;;;56.00;27.23;;;19.10;65.60;;;;;;5115551;28;20426;-68
2021/09/17 00:33:29;;;;;;;60.53;27.45;;;19.20;66.20;;;;;;5115802;28;20059;-66
2021/09/17 00:35:57;;;;;;;50.92;23.70;;;19.20;66.60;;;;;;5115275;28;20022;-63
2021/09/17 00:38:25;;;;;;;53.13;25.40;;;19.20;66.70;;;;;;5095331;28;20054;-67
2021/09/17 00:40:52;;;;;;;36.95;18.45;;;19.20;66.90;;;;;;5114219;28;20027;-69
2021/09/17 00:43:20;;;;;;;50.88;23.48;;;19.20;64.50;;;;;;5115464;28;20344;-70
2021/09/17 00:45:47;;;;;;;52.80;24.70;;;19.20;67.00;;;;;;5114824;28;20024;-67
2021/09/17 00:48:15;;;;;;;46.10;21.30;;;19.00;67.50;;;;;;5096586;28;20051;-67
2021/09/17 00:50:42;;;;;;;38.70;18.83;;;19.20;65.10;;;;;;5115613;28;20034;-66
2021/09/17 00:53:10;;;;;;;39.67;18.25;;;19.10;67.10;;;;;;5115470;28;20471;-71
2021/09/17 00:55:38;;;;;;;42.25;20.73;;;19.20;65.90;;;;;;5115334;28;20106;-67
2021/09/17 00:58:09;;;;;;;38.35;18.38;;;19.20;66.50;;;;;;5114670;28;20477;-66
2021/09/17 01:00:37;;;;;;;42.35;20.13;;;19.30;65.90;;;;;;5097093;28;20059;-65
2021/09/17 01:03:04;;;;;;;41.35;19.48;;;19.20;66.90;;;;;;5115247;28;20099;-66
2021/09/17 01:05:31;;;;;;;40.20;18.67;;;19.20;66.70;;;;;;5115216;28;20054;-69
2021/09/17 01:07:59;;;;;;;32.33;14.50;;;19.20;65.60;;;;;;5114896;28;20019;-68
2021/09/17 01:10:27;;;;;;;38.17;16.70;;;19.20;65.80;;;;;;5115295;28;20029;-67
2021/09/17 01:12:55;;;;;;;32.05;13.30;;;19.20;66.60;;;;;;5115088;28;20024;-71
2021/09/17 01:15:23;;;;;;;29.35;13.48;;;19.40;62.90;;;;;;5114590;28;20412;-69
2021/09/17 01:17:50;;;;;;;32.08;15.05;;;19.60;63.40;;;;;;5114782;28;20076;-59
2021/09/17 01:20:20;;;;;;;17.88;9.13;;;19.70;64.00;;;;;;5099905;28;20046;-57
2021/09/17 01:22:49;;;;;;;21.60;8.07;;;20.00;58.80;;;;;;5109795;28;20409;-58
2021/09/17 01:25:20;;;;;;;;;;;20.20;58.00;;;;;;5105609;28;20028;-61
2021/09/17 01:27:51;;;;;;;10.23;3.97;;;20.20;60.70;;;;;;5109602;28;19911;-60
2021/09/17 01:30:20;;;;;;;14.88;6.60;;;20.30;55.70;;;;;;5110427;28;20335;-64
2021/09/17 01:32:47;;;;;;;11.00;4.32;;;20.30;59.50;;;;;;5089486;28;21137;-55
2021/09/17 01:35:19;;;;;;;12.80;5.90;;;20.30;56.60;;;;;;5105107;28;20023;-58
2021/09/17 01:37:47;;;;;;;9.60;4.50;;;20.30;59.10;;;;;;5109504;28;20020;-58
2021/09/17 01:40:16;;;;;;;7.97;3.22;;;20.30;58.10;;;;;;5106138;28;20030;-59
2021/09/17 01:42:45;;;;;;;6.28;2.72;;;20.50;57.70;;;;;;5110243;28;20106;-61
2021/09/17 01:45:13;;;;;;;7.38;3.45;;;20.60;57.50;;;;;;5104598;28;20474;-63
2021/09/17 01:47:40;;;;;;;11.45;2.25;;;20.60;57.50;;;;;;5107190;28;20051;-58
2021/09/17 01:50:09;;;;;;;10.70;2.63;;;20.70;59.00;;;;;;5110025;28;20040;-57
2021/09/17 01:52:37;;;;;;;8.90;2.70;;;20.70;59.10;;;;;;5106623;28;20026;-58
2021/09/17 01:55:05;;;;;;;8.68;2.38;;;20.80;59.00;;;;;;5104166;28;20538;-58
2021/09/17 01:57:32;;;;;;;6.22;2.10;;;20.90;59.90;;;;;;5107410;28;20379;-59
2021/09/17 02:00:00;;;;;;;5.88;1.98;;;21.00;59.80;;;;;;5098379;28;20378;-61
2021/09/17 02:02:28;;;;;;;5.00;1.73;;;21.10;59.80;;;;;;5093563;28;20031;-61
2021/09/17 02:04:55;;;;;;;3.60;1.40;;;21.20;60.20;;;;;;5093518;28;20074;-59
2021/09/17 02:07:22;;;;;;;5.45;1.80;;;21.20;60.20;;;;;;5099209;28;20028;-67
2021/09/17 02:09:50;;;;;;;4.47;1.63;;;21.10;60.40;;;;;;5107650;28;20020;-64
2021/09/17 02:12:17;;;;;;;11.57;2.10;;;20.80;61.10;;;;;;5084480;28;20118;-70
2021/09/17 02:14:45;;;;;;;5.50;2.00;;;20.80;61.30;;;;;;5102229;28;20028;-60
2021/09/17 02:17:12;;;;;;;8.40;2.10;;;20.80;61.50;;;;;;5100466;28;20186;-67
2021/09/17 02:19:40;;;;;;;3.90;1.70;;;20.70;61.60;;;;;;5106513;28;20402;-68
2021/09/17 02:22:08;;;;;;;5.97;2.05;;;20.60;61.70;;;;;;5084749;28;20182;-64
2021/09/17 02:24:35;;;;;;;7.18;2.10;;;20.70;62.20;;;;;;5104908;28;20020;-60
2021/09/17 02:27:02;;;;;;;10.38;2.05;;;20.80;62.00;;;;;;5107709;28;20019;-64
2021/09/17 02:29:37;;;;;;;5.35;1.60;;;20.70;62.10;;;;;;5106935;28;20028;-75
2021/09/17 02:32:04;;;;;;;5.32;1.90;;;20.80;61.50;;;;;;5102081;28;20027;-56
2021/09/17 02:34:32;;;;;;;7.65;2.00;;;20.80;61.50;;;;;;5107233;28;20028;-72
2021/09/17 02:37:00;;;;;;;5.57;1.73;;;20.80;61.40;;;;;;5100871;28;20365;-66
2021/09/17 02:39:27;;;;;;;7.45;1.85;;;20.90;61.70;;;;;;5086670;28;20044;-62
2021/09/17 02:41:55;;;;;;;8.50;1.80;;;21.00;61.90;;;;;;5107073;28;20058;-64
2021/09/17 02:44:22;;;;;;;8.65;2.17;;;21.00;61.60;;;;;;5103905;28;20028;-66
2021/09/17 02:46:50;;;;;;;5.50;1.50;;;21.10;61.60;;;;;;5081052;28;20028;-63
2021/09/17 02:49:17;;;;;;;11.38;2.17;;;20.90;61.50;;;;;;5107294;28;20122;-67
2021/09/17 02:51:46;;;;;;;5.85;1.70;;;21.00;62.00;;;;;;5097130;28;20028;-64
2021/09/17 02:54:14;;;;;;;6.43;1.85;;;20.90;62.00;;;;;;5097637;28;20027;-65
2021/09/17 02:56:42;;;;;;;7.50;2.00;;;20.90;62.20;;;;;;5105250;28;20111;-67
2021/09/17 02:59:10;;;;;;;3.63;1.15;;;20.80;62.40;;;;;;5097053;28;20588;-67
2021/09/17 03:01:37;;;;;;;4.55;1.73;;;21.00;62.10;;;;;;5085919;28;20024;-68
2021/09/17 03:04:04;;;;;;;7.50;1.80;;;21.00;62.20;;;;;;5085424;28;20106;-67
2021/09/17 03:06:32;;;;;;;4.57;1.80;;;21.00;62.00;;;;;;5106243;28;20027;-64
2021/09/17 03:08:59;;;;;;;4.93;1.30;;;21.00;61.80;;;;;;5110914;28;20036;-65
2021/09/17 03:11:26;;;;;;;5.25;1.50;;;21.00;62.10;;;;;;5095663;28;20023;-67
2021/09/17 03:13:54;;;;;;;4.70;1.70;;;21.00;62.20;;;;;;5100922;28;20028;-65
2021/09/17 03:16:21;;;;;;;6.28;1.70;;;21.10;62.10;;;;;;5108232;28;20027;-68
2021/09/17 03:18:49;;;;;;;2.55;1.08;;;21.00;62.50;;;;;;5113318;28;20085;-66
2021/09/17 03:21:17;;;;;;;4.70;1.63;;;20.90;62.90;;;;;;5106686;28;20031;-68
2021/09/17 03:23:44;;;;;;;4.82;1.58;;;20.80;63.50;;;;;;5085310;28;20085;-67
2021/09/17 03:26:12;;;;;;;4.00;1.30;;;21.00;63.00;;;;;;5114295;28;20043;-65
2021/09/17 03:28:39;;;;;;;4.65;1.50;;;21.00;63.30;;;;;;5108096;28;20038;-67
2021/09/17 03:31:06;;;;;;;4.90;1.58;;;21.00;63.50;;;;;;5111150;28;20448;-69
2021/09/17 03:33:34;;;;;;;4.63;1.20;;;20.90;64.10;;;;;;5071250;28;20042;-64
2021/09/17 03:36:01;;;;;;;6.70;1.95;;;21.00;63.80;;;;;;5103096;27;20032;-67
2021/09/17 03:38:28;;;;;;;7.82;2.13;;;21.10;63.80;;;;;;5090746;28;20066;-65
2021/09/17 03:40:56;;;;;;;3.40;1.50;;;21.00;64.10;;;;;;5113816;28;20115;-66
2021/09/17 03:43:26;;;;;;;5.10;1.42;;;21.00;64.10;;;;;;5098092;28;20016;-72
2021/09/17 03:45:54;;;;;;;4.70;1.30;;;21.10;64.00;;;;;;5106519;28;20107;-69
2021/09/17 03:48:21;;;;;;;4.32;1.38;;;21.10;63.80;;;;;;5094644;28;20055;-66
2021/09/17 03:51:05;;;;;;;4.47;1.65;;;21.10;64.80;;;;;;5024044;27;20473;-64
2021/09/17 03:53:33;;;;;;;9.38;2.72;;;21.00;64.50;;;;;;5021903;28;20034;-65
2021/09/17 03:56:00;;;;;;;5.43;1.38;;;21.10;64.40;;;;;;5024413;28;20100;-65
2021/09/17 03:58:28;;;;;;;4.97;1.30;;;21.00;64.80;;;;;;5007118;28;20428;-67
2021/09/17 04:00:55;;;;;;;4.30;1.50;;;21.00;64.90;;;;;;5023902;28;20045;-64
2021/09/17 04:03:22;;;;;;;5.95;1.65;;;21.00;65.40;;;;;;5002092;28;20026;-68
2021/09/17 04:05:50;;;;;;;2.72;1.30;;;21.00;64.60;;;;;;5021436;28;20038;-65
2021/09/17 04:08:17;;;;;;;4.40;1.33;;;21.10;64.60;;;;;;5024752;28;20109;-65
2021/09/17 04:10:46;;;;;;;7.13;1.60;;;21.10;64.50;;;;;;5025788;28;20441;-66
2021/09/17 04:13:14;;;;;;;3.35;1.17;;;21.00;65.50;;;;;;4997952;28;20044;-67
2021/09/17 04:15:41;;;;;;;6.85;1.23;;;21.00;65.60;;;;;;5018665;28;20078;-67
2021/09/17 04:18:09;;;;;;;5.90;1.80;;;20.90;65.30;;;;;;5020124;28;20123;-69
2021/09/17 04:20:56;;;;;;;5.22;1.70;;;21.00;65.40;;;;;;5021015;28;20431;-64
2021/09/17 04:23:23;;;;;;;3.65;1.52;;;20.90;65.60;;;;;;4996939;28;20105;-67
2021/09/17 04:28:52;;;;;;;;;;;;;;;;;;;;;
2021/09/17 04:31:54;;;;;;;6.40;1.23;;;20.80;65.90;;;;;;5031918;28;20034;-60
2021/09/17 04:34:22;;;;;;;4.05;1.33;;;20.90;65.90;;;;;;5019260;28;20380;-65
2021/09/17 04:36:54;;;;;;;2.97;0.95;;;21.00;64.70;;;;;;5021614;28;20034;-62
2021/09/17 04:45:29;;;;;;;3.75;1.05;;;21.10;64.60;;;;;;5038220;28;20095;-65
2021/09/17 04:48:05;;;;;;;3.03;1.02;;;21.00;65.10;;;;;;5014204;28;20492;-71
2021/09/17 04:50:36;;;;;;;8.40;1.23;;;21.00;65.00;;;;;;5017253;28;20160;-68
2021/09/17 04:53:04;;;;;;;4.70;1.33;;;20.90;64.80;;;;;;5014649;28;20030;-67
2021/09/17 04:55:31;;;;;;;3.95;0.82;;;20.90;65.00;;;;;;5018001;28;20032;-63
2021/09/17 04:58:02;;;;;;;3.38;1.30;;;20.90;64.60;;;;;;5018860;28;20029;-64
2021/09/17 05:00:31;;;;;;;3.83;1.13;;;20.90;64.30;;;;;;4998298;28;20054;-64
2021/09/17 05:02:58;;;;;;;2.55;0.82;;;20.90;65.00;;;;;;5001794;28;20029;-70
2021/09/17 05:05:26;;;;;;;4.20;1.05;;;20.80;65.20;;;;;;5005177;28;20030;-70
2021/09/17 05:07:54;;;;;;;4.80;1.10;;;20.80;65.40;;;;;;5005588;28;20112;-62
2021/09/17 05:10:22;;;;;;;5.45;1.10;;;20.70;65.60;;;;;;5002982;28;20042;-65
2021/09/17 05:12:50;;;;;;;2.47;0.93;;;20.80;65.40;;;;;;5001029;28;20030;-64
2021/09/17 05:15:18;;;;;;;5.15;0.98;;;20.70;65.80;;;;;;4987993;28;20498;-61
2021/09/17 05:17:46;;;;;;;3.65;1.30;;;20.70;65.50;;;;;;4987712;28;20161;-60
2021/09/17 05:20:14;;;;;;;3.67;1.35;;;20.70;65.60;;;;;;5004300;28;20446;-64
2021/09/17 05:22:42;;;;;;;4.50;1.48;;;20.70;65.60;;;;;;4983744;28;20030;-61
2021/09/17 05:25:10;;;;;;;4.95;0.82;;;20.60;65.60;;;;;;5005728;28;20036;-62
2021/09/17 05:27:39;;;;;;;2.92;1.20;;;20.60;65.80;;;;;;5005198;28;20422;-62
2021/09/17 05:30:07;;;;;;;3.45;0.90;;;20.50;66.30;;;;;;5005163;28;20068;-63
2021/09/17 05:32:35;;;;;;;5.43;1.52;;;20.50;66.60;;;;;;5000245;28;20037;-62
2021/09/17 05:35:04;;;;;;;5.63;1.63;;;20.50;66.50;;;;;;5004743;28;20110;-67
2021/09/17 05:37:32;;;;;;;2.40;1.30;;;20.50;66.70;;;;;;5004737;28;20026;-65
2021/09/17 05:43:03;;;;;;;2.25;1.13;;;20.50;66.80;;;;;;5000737;28;20434;-63
2021/09/17 05:45:31;;;;;;;4.65;1.10;;;20.50;66.90;;;;;;5004942;28;20079;-63
2021/09/17 05:47:59;;;;;;;4.40;1.38;;;20.50;67.10;;;;;;4992631;28;20091;-65
2021/09/17 05:50:27;;;;;;;8.00;1.45;;;20.50;67.10;;;;;;5007181;28;20057;-68
2021/09/17 05:52:54;;;;;;;5.18;1.42;;;20.40;67.20;;;;;;4992031;28;20037;-66
2021/09/17 05:55:26;;;;;;;2.95;1.27;;;20.40;67.40;;;;;;5010202;28;20022;-65
2021/09/17 05:57:56;;;;;;;6.50;1.10;;;20.40;67.70;;;;;;4992446;28;20037;-72
2021/09/17 06:00:25;;;;;;;2.13;1.00;;;20.40;68.10;;;;;;4992096;28;20030;-63
2021/09/17 06:02:53;;;;;;;5.25;1.10;;;20.20;68.10;;;;;;5008963;28;20038;-64
2021/09/17 06:05:21;;;;;;;4.60;1.23;;;20.30;68.10;;;;;;4976464;28;20030;-67
2021/09/17 06:07:48;;;;;;;5.88;1.13;;;20.30;68.20;;;;;;5008847;28;20042;-67
2021/09/17 06:10:20;;;;;;;1.92;0.98;;;20.30;68.30;;;;;;4991999;28;21122;-67
2021/09/17 06:12:48;;;;;;;11.95;1.33;;;20.20;68.30;;;;;;5008264;28;20029;-64
2021/09/17 06:15:17;;;;;;;7.07;1.60;;;20.20;68.50;;;;;;5009501;28;20030;-66
2021/09/17 06:17:45;;;;;;;3.15;1.20;;;20.20;68.40;;;;;;5008306;28;20067;-64
2021/09/17 06:20:14;;;;;;;3.95;1.20;;;20.20;68.80;;;;;;5007081;28;20113;-65
2021/09/17 06:22:45;;;;;;;4.68;1.33;;;20.20;69.40;;;;;;5007363;28;20100;-65
2021/09/17 06:25:15;;;;;;;5.13;1.27;;;20.20;69.40;;;;;;5007328;28;20098;-69
2021/09/17 06:27:43;;;;;;;3.47;1.42;;;20.10;70.00;;;;;;5006973;28;20087;-72
2021/09/17 06:30:12;;;;;;;2.63;1.08;;;20.00;69.80;;;;;;5007193;28;20102;-65
2021/09/17 06:32:40;;;;;;;9.38;1.05;;;20.10;69.80;;;;;;5005754;28;20038;-68
2021/09/17 06:35:08;;;;;;;8.50;1.48;;;19.80;70.40;;;;;;5006651;28;20014;-65
2021/09/17 06:37:43;;;;;;;7.03;2.20;;;19.70;71.20;;;;;;4989252;28;20022;-68
2021/09/17 06:40:11;;;;;;;9.13;1.70;;;19.30;71.70;;;;;;5006969;28;20052;-70
2021/09/17 06:42:42;;;;;;;3.78;1.42;;;19.50;72.20;;;;;;5006824;28;20365;-71
2021/09/17 06:45:10;;;;;;;12.15;1.83;;;19.60;72.10;;;;;;5006572;28;20037;-70
2021/09/17 06:47:46;;;;;;;5.25;1.70;;;19.60;72.10;;;;;;4981273;28;20030;-64
2021/09/17 06:50:15;;;;;;;5.25;1.35;;;19.60;73.60;;;;;;5000062;28;20222;-68
2021/09/17 06:52:47;;;;;;;6.50;2.03;;;19.50;73.70;;;;;;5003132;28;20030;-66
2021/09/17 06:55:44;;;;;;;10.88;2.55;;;19.40;74.70;;;;;;5002500;28;20053;-62
2021/09/17 06:58:11;;;;;;;7.13;1.77;;;19.30;75.00;;;;;;5003205;28;20030;-62
2021/09/17 07:00:40;;;;;;;7.85;1.58;;;19.20;75.00;;;;;;5003978;28;20018;-70
2021/09/17 07:03:07;;;;;;;9.35;1.70;;;19.20;75.30;;;;;;5004081;28;20079;-69
2021/09/17 07:05:35;;;;;;;13.35;1.95;;;18.90;76.30;;;;;;4996122;28;20029;-68
2021/09/17 07:08:07;;;;;;;10.45;2.05;;;19.00;75.90;;;;;;4984895;28;21222;-67
2021/09/17 07:10:37;;;;;;;6.85;1.50;;;18.70;76.20;;;;;;5002743;28;20099;-62
2021/09/17 07:13:05;;;;;;;8.82;2.10;;;18.90;76.10;;;;;;5003496;28;20045;-62
2021/09/17 07:15:33;;;;;;;8.25;2.13;;;18.70;76.50;;;;;;5000706;28;20038;-66
2021/09/17 07:18:06;;;;;;;8.07;2.25;;;18.90;76.00;;;;;;5004316;28;20040;-65
2021/09/17 07:20:34;;;;;;;5.32;1.67;;;19.00;75.30;;;;;;5002277;28;20026;-64
2021/09/17 07:23:06;;;;;;;6.45;1.35;;;19.10;75.10;;;;;;5002976;28;20041;-65
2021/09/17 07:25:35;;;;;;;12.15;1.63;;;19.20;74.80;;;;;;5000163;28;20049;-64
2021/09/17 07:28:03;;;;;;;5.63;1.38;;;19.20;74.60;;;;;;5006303;28;20034;-64
2021/09/17 07:30:31;;;;;;;6.53;1.55;;;19.20;74.40;;;;;;4989045;28;20034;-66
2021/09/17 07:33:00;;;;;;;7.57;1.80;;;19.30;74.40;;;;;;5006548;28;20022;-66
2021/09/17 07:35:28;;;;;;;6.75;2.13;;;19.20;74.30;;;;;;4979056;28;21130;-69
2021/09/17 07:37:57;;;;;;;5.32;1.48;;;19.20;74.50;;;;;;4985433;28;20121;-66
2021/09/17 07:40:26;;;;;;;5.93;1.70;;;19.20;74.40;;;;;;5002696;28;20034;-65
2021/09/17 07:42:54;;;;;;;3.10;1.20;;;19.20;74.40;;;;;;5002305;28;20022;-62
2021/09/17 07:45:23;;;;;;;5.20;1.52;;;19.20;74.50;;;;;;5003239;28;20540;-65
2021/09/17 07:47:54;;;;;;;3.80;1.42;;;19.20;74.50;;;;;;5002600;28;20491;-64
2021/09/17 07:50:22;;;;;;;5.18;1.73;;;19.20;74.60;;;;;;5003379;28;20414;-66
2021/09/17 07:52:50;;;;;;;5.05;1.30;;;19.10;74.60;;;;;;4982667;28;20057;-66
2021/09/17 07:55:32;;;;;;;2.35;1.27;;;19.10;74.70;;;;;;4985242;28;20033;-72
2021/09/17 07:58:05;;;;;;;2.70;1.13;;;19.10;74.90;;;;;;5003243;28;20026;-64
2021/09/17 08:00:33;;;;;;;5.50;1.35;;;19.10;75.10;;;;;;5002610;28;20503;-63
2021/09/17 08:03:00;;;;;;;4.90;1.20;;;19.10;75.10;;;;;;5000149;28;20038;-61
2021/09/17 08:05:28;;;;;;;2.55;1.13;;;19.10;75.10;;;;;;5001770;28;20119;-63
2021/09/17 08:07:56;;;;;;;3.78;1.50;;;19.00;75.20;;;;;;4984544;28;20038;-63
2021/09/17 08:10:23;;;;;;;5.30;1.67;;;19.00;75.50;;;;;;5002070;28;20022;-62
2021/09/17 08:12:51;;;;;;;5.85;1.70;;;19.00;75.80;;;;;;4999235;28;20496;-64
2021/09/17 08:15:19;;;;;;;5.00;1.50;;;18.90;75.90;;;;;;5000618;28;20030;-70
2021/09/17 08:17:47;;;;;;;7.55;1.98;;;18.90;75.80;;;;;;5001964;28;20117;-66
2021/09/17 08:20:15;;;;;;;6.38;1.70;;;18.90;75.80;;;;;;5002756;28;20018;-67
2021/09/17 08:22:42;;;;;;;4.63;1.48;;;18.90;76.10;;;;;;4999744;28;20025;-63
2021/09/17 08:25:10;;;;;;;2.20;1.17;;;18.90;76.20;;;;;;5002696;28;20018;-63
2021/09/17 08:27:39;;;;;;;4.70;1.65;;;18.90;76.30;;;;;;4985741;28;20479;-64
2021/09/17 08:30:11;;;;;;;9.38;1.60;;;18.80;76.30;;;;;;5003236;28;20487;-66
2021/09/17 08:32:39;;;;;;;8.57;1.83;;;18.80;76.40;;;;;;4983210;28;20498;-68
2021/09/17 08:35:11;;;;;;;5.25;2.08;;;18.80;76.50;;;;;;5001672;28;20037;-65
2021/09/17 08:37:40;;;;;;;3.42;1.35;;;18.80;76.50;;;;;;4986793;28;20034;-66
2021/09/17 08:40:08;;;;;;;3.15;1.58;;;18.80;76.80;;;;;;5004578;28;20034;-66
2021/09/17 08:42:37;;;;;;;4.32;1.38;;;18.80;76.80;;;;;;5004116;28;20030;-67
2021/09/17 08:45:07;;;;;;;6.78;1.83;;;18.80;76.90;;;;;;5002575;28;20030;-65
2021/09/17 08:47:35;;;;;;;3.88;1.70;;;18.70;76.90;;;;;;4989559;28;20035;-64
2021/09/17 08:50:03;;;;;;;5.10;1.13;;;18.70;77.00;;;;;;5003074;28;20038;-69
2021/09/17 08:52:30;;;;;;;6.82;1.83;;;18.70;76.90;;;;;;5003264;28;20042;-73
2021/09/17 08:55:02;;;;;;;4.57;1.55;;;18.70;77.20;;;;;;5001848;28;20252;-70
2021/09/17 08:57:29;;;;;;;6.05;1.58;;;18.70;77.10;;;;;;5004113;28;20396;-63
2021/09/17 08:59:57;;;;;;;4.47;1.92;;;18.70;77.20;;;;;;5001609;28;20107;-67
2021/09/17 09:02:28;;;;;;;8.23;1.35;;;18.70;77.40;;;;;;5005789;28;20053;-62
2021/09/17 09:05:33;;;;;;;3.35;1.27;;;18.60;77.40;;;;;;5003951;28;20030;-61
2021/09/17 09:08:09;;;;;;;8.70;1.67;;;18.60;77.50;;;;;;5009413;28;20049;-65
2021/09/17 09:10:48;;;;;;;7.32;1.83;;;18.60;77.40;;;;;;5010430;28;20041;-62
2021/09/17 09:13:17;;;;;;;5.00;1.80;;;18.60;77.40;;;;;;5009372;28;20022;-61
2021/09/17 09:15:45;;;;;;;5.13;1.50;;;18.60;77.30;;;;;;5008735;28;20018;-63
2021/09/17 09:18:16;;;;;;;2.40;1.20;;;18.60;77.50;;;;;;5008768;28;20091;-62
2021/09/17 09:20:46;;;;;;;4.87;1.47;;;18.50;77.50;;;;;;5008502;28;20489;-63
2021/09/17 09:23:19;;;;;;;3.45;2.03;;;18.50;77.50;;;;;;5008557;28;20034;-63
2021/09/17 09:25:55;;;;;;;5.57;1.58;;;18.50;77.70;;;;;;5009322;28;20030;-63
2021/09/17 09:28:24;;;;;;;4.10;1.55;;;18.50;77.90;;;;;;5009223;28;20022;-61
2021/09/17 09:30:53;;;;;;;3.65;1.42;;;18.40;77.60;;;;;;5009216;28;20079;-61
2021/09/17 09:33:28;;;;;;;2.33;1.20;;;18.40;77.80;;;;;;5008183;28;20067;-60
2021/09/17 09:36:12;;;;;;;5.03;1.60;;;18.40;78.00;;;;;;5008562;28;20022;-66
2021/09/17 09:38:50;;;;;;;5.05;1.42;;;18.40;78.00;;;;;;5008620;28;20030;-60
2021/09/17 09:41:23;;;;;;;4.90;1.60;;;18.40;78.20;;;;;;5008397;28;20056;-65
2021/09/17 09:43:56;;;;;;;;;;;18.40;78.00;;;;;;5009894;28;20037;-65
2021/09/17 09:46:27;;;;;;;4.18;1.60;;;18.40;78.00;;;;;;5007573;28;19931;-62
2021/09/17 09:49:03;;;;;;;2.72;1.30;;;18.30;78.10;;;;;;5007313;28;20362;-63
2021/09/17 09:51:33;;;;;;;6.32;1.80;;;18.30;78.00;;;;;;5008623;28;20061;-68
2021/09/17 09:54:03;;;;;;;3.42;1.40;;;18.30;78.00;;;;;;4989975;28;20038;-62
2021/09/17 09:56:32;;;;;;;3.85;1.83;;;18.30;78.20;;;;;;5007669;28;20032;-62
2021/09/17 09:59:06;;;;;;;2.60;1.48;;;18.30;78.30;;;;;;5007515;28;20030;-71
2021/09/17 10:01:40;;;;;;;3.25;1.30;;;18.30;78.10;;;;;;4998893;28;20110;-61
2021/09/17 10:04:11;;;;;;;4.95;1.70;;;18.30;78.40;;;;;;5005257;28;20014;-71
2021/09/17 10:06:40;;;;;;;3.85;1.88;;;18.30;78.10;;;;;;5003875;28;20104;-70
2021/09/17 10:09:10;;;;;;;4.43;1.60;;;18.30;78.10;;;;;;5001713;28;20026;-69
2021/09/17 10:11:41;;;;;;;6.30;2.03;;;18.30;78.50;;;;;;5004132;28;20030;-64
2021/09/17 10:14:13;;;;;;;5.50;1.67;;;18.30;78.40;;;;;;4988256;28;20087;-63
2021/09/17 10:16:45;;;;;;;;;;;18.30;78.40;;;;;;5005662;28;20511;-68
2021/09/17 10:19:13;;;;;;;9.33;1.93;;;18.30;78.20;;;;;;5002497;28;19906;-67
2021/09/17 10:22:01;;;;;;;3.40;1.25;;;18.30;78.20;;;;;;5004770;28;20889;-66
2021/09/17 10:24:35;;;;;;;2.97;1.38;;;18.30;78.40;;;;;;5003898;28;20074;-64
2021/09/17 10:27:08;;;;;;;4.32;1.85;;;18.40;78.30;;;;;;4986997;28;20384;-66
2021/09/17 10:29:47;;;;;;;4.57;1.60;;;18.30;78.80;;;;;;5002754;28;20061;-67
2021/09/17 10:32:40;;;;;;;2.70;1.55;;;18.40;78.50;;;;;;5006230;28;20491;-67
2021/09/17 10:35:15;;;;;;;;;;;18.30;78.20;;;;;;5004574;28;20038;-66
2021/09/17 10:38:16;;;;;;;4.10;1.63;;;18.40;78.40;;;;;;5004431;28;19920;-63
2021/09/17 10:40:56;;;;;;;4.15;1.77;;;18.40;78.30;;;;;;5004469;28;20029;-61
2021/09/17 10:43:39;;;;;;;3.80;1.55;;;18.40;78.30;;;;;;5001190;28;20044;-60
2021/09/17 10:46:10;;;;;;;;;;;18.40;78.10;;;;;;5002948;28;20030;-63
2021/09/17 10:48:48;;;;;;;4.35;1.42;;;18.40;78.10;;;;;;4999865;28;19912;-65
2021/09/17 10:51:47;;;;;;;3.97;1.50;;;18.40;78.00;;;;;;5004263;28;20073;-66
2021/09/17 10:54:23;;;;;;;3.20;1.40;;;18.40;78.10;;;;;;4950838;28;20300;-63
2021/09/17 10:56:50;;;;;;;3.55;1.40;;;18.40;78.00;;;;;;5004026;28;20033;-64
2021/09/17 10:59:30;;;;;;;2.25;1.58;;;18.40;78.00;;;;;;4996669;28;20049;-64
2021/09/17 11:02:00;;;;;;;4.10;1.65;;;18.40;77.90;;;;;;5001813;28;20476;-65
2021/09/17 11:04:47;;;;;;;3.22;1.65;;;18.40;78.00;;;;;;4985979;28;20034;-63
2021/09/17 11:07:25;;;;;;;3.65;2.00;;;18.40;78.10;;;;;;4986560;28;20124;-63
2021/09/17 11:09:53;;;;;;;4.30;1.60;;;18.40;78.20;;;;;;4997518;28;20050;-62
2021/09/17 11:12:30;;;;;;;3.45;1.50;;;18.40;78.20;;;;;;5000146;28;20080;-61
2021/09/17 11:15:08;;;;;;;3.63;1.70;;;18.40;78.20;;;;;;4986064;28;20055;-64
2021/09/17 11:17:48;;;;;;;3.22;1.30;;;18.30;78.20;;;;;;5004037;28;20061;-64
2021/09/17 11:20:23;;;;;;;5.95;1.90;;;18.40;78.40;;;;;;5002033;28;20032;-63
2021/09/17 11:23:09;;;;;;;3.28;1.30;;;18.40;78.50;;;;;;5004056;28;20490;-65
2021/09/17 11:25:40;;;;;;;2.83;1.60;;;18.40;78.30;;;;;;5002396;28;20030;-65
2021/09/17 11:28:29;;;;;;;4.40;1.70;;;18.30;78.40;;;;;;4984138;28;20648;-65
2021/09/17 11:31:18;;;;;;;5.22;1.95;;;18.30;78.50;;;;;;5002389;28;20038;-63
2021/09/17 11:33:57;;;;;;;3.63;1.42;;;18.30;78.40;;;;;;5003183;28;20037;-58
2021/09/17 11:36:42;;;;;;;4.22;1.60;;;18.30;78.60;;;;;;5002085;28;20026;-62
2021/09/17 11:39:14;;;;;;;5.63;1.60;;;18.30;78.50;;;;;;4999716;28;20041;-61
2021/09/17 11:41:46;;;;;;;3.53;1.65;;;18.30;78.60;;;;;;5005138;28;20034;-63
2021/09/17 11:44:38;;;;;;;3.35;1.17;;;18.30;78.50;;;;;;5002765;28;20046;-62
2021/09/17 11:47:07;;;;;;;3.85;1.40;;;18.30;78.50;;;;;;5004133;28;20022;-69
2021/09/17 11:49:41;;;;;;;5.32;1.52;;;18.30;78.50;;;;;;5083841;28;20046;-68
2021/09/17 11:52:12;;;;;;;3.05;1.65;;;18.30;78.50;;;;;;5005680;28;20143;-62
2021/09/17 11:55:12;;;;;;;3.88;1.50;;;18.30;78.40;;;;;;5003594;28;20010;-63
2021/09/17 11:57:42;;;;;;;3.30;1.35;;;18.30;78.40;;;;;;5002603;28;20041;-64
2021/09/17 12:00:28;;;;;;;6.72;1.90;;;18.30;78.50;;;;;;4999501;28;20029;-61
2021/09/17 12:03:05;;;;;;;3.95;1.45;;;18.40;78.50;;;;;;4984077;28;20480;-60
2021/09/17 12:05:41;;;;;;;4.88;1.63;;;18.30;78.30;;;;;;4984594;28;20115;-62
2021/09/17 12:08:09;;;;;;;5.22;1.48;;;18.30;78.30;;;;;;5006475;28;20443;-66
2021/09/17 12:10:39;;;;;;;3.22;1.42;;;18.30;78.50;;;;;;5007650;28;20061;-65
2021/09/17 12:13:12;;;;;;;4.22;1.42;;;18.30;78.40;;;;;;4992060;28;20057;-62
2021/09/17 12:15:41;;;;;;;3.38;1.33;;;18.30;78.40;;;;;;5009390;28;20026;-63
2021/09/17 12:18:26;;;;;;;3.67;1.58;;;18.30;78.40;;;;;;5009068;28;20026;-64
2021/09/17 12:20:57;;;;;;;3.65;1.63;;;18.30;78.30;;;;;;5008821;28;20032;-62
2021/09/17 12:23:39;;;;;;;2.42;1.35;;;18.30;78.30;;;;;;5008774;28;20109;-61
2021/09/17 12:26:25;;;;;;;4.22;1.30;;;18.20;78.30;;;;;;5007240;28;20030;-63
2021/09/17 12:28:54;;;;;;;3.13;1.23;;;18.20;78.30;;;;;;5009290;28;20396;-63
2021/09/17 12:31:35;;;;;;;3.08;1.35;;;18.20;78.40;;;;;;5008816;28;20438;-63
2021/09/17 12:34:14;;;;;;;5.13;1.58;;;18.20;78.20;;;;;;5008516;28;20030;-61
2021/09/17 12:36:42;;;;;;;5.43;2.10;;;18.20;78.20;;;;;;5009273;28;20038;-62
2021/09/17 12:39:14;;;;;;;4.35;1.65;;;18.20;78.20;;;;;;5008946;28;20034;-61
2021/09/17 12:41:41;;;;;;;3.47;1.40;;;18.30;78.30;;;;;;5009244;28;20048;-63
2021/09/17 12:44:11;;;;;;;4.13;1.40;;;18.20;78.20;;;;;;5010014;28;20061;-62
2021/09/17 12:46:44;;;;;;;2.75;1.23;;;18.20;78.30;;;;;;5008871;28;20022;-60
2021/09/17 12:49:17;;;;;;;3.92;1.55;;;18.20;78.30;;;;;;4989964;28;20089;-60
2021/09/17 12:51:59;;;;;;;5.20;1.58;;;18.20;78.30;;;;;;4990121;28;20731;-61
2021/09/17 12:54:52;;;;;;;;;;;18.20;78.30;;;;;;5007231;28;20025;-60
2021/09/17 12:57:26;;;;;;;3.17;1.40;;;18.20;78.40;;;;;;5008322;28;20382;-62
2021/09/17 13:00:01;;;;;;;3.45;1.30;;;18.20;78.50;;;;;;5008477;28;20034;-62
2021/09/17 13:02:29;;;;;;;2.45;1.23;;;18.20;78.70;;;;;;4991000;28;20501;-62
2021/09/17 13:05:02;;;;;;;2.58;1.50;;;18.20;78.70;;;;;;5008282;28;20034;-62
2021/09/17 13:07:29;;;;;;;3.85;1.73;;;18.20;78.80;;;;;;5008221;28;20112;-61
2021/09/17 13:09:57;;;;;;;4.78;1.75;;;18.20;78.70;;;;;;5008590;28;20034;-64
2021/09/17 13:12:25;;;;;;;2.85;1.35;;;18.20;78.70;;;;;;4991387;28;20030;-62
2021/09/17 13:14:53;;;;;;;3.10;1.30;;;18.10;78.50;;;;;;5008521;28;21265;-59
2021/09/17 13:17:21;;;;;;;2.90;1.48;;;18.10;78.50;;;;;;5007894;28;20034;-62
2021/09/17 13:20:16;;;;;;;1.85;1.30;;;18.10;78.50;;;;;;5010229;28;20030;-60